createdAt,value
2022-09-07T00:00:55.652Z,99949.34
2022-09-07T00:03:22.198Z,99946.78
2022-09-07T00:05:49.448Z,99942.66
2022-09-07T00:08:16.477Z,99950.56
2022-09-07T00:10:50.710Z,99942.50
2022-09-07T00:13:17.034Z,99946.28
2022-09-07T00:15:44.792Z,99940.91
2022-09-07T00:18:11.227Z,99936.25
2022-09-07T00:20:37.567Z,99933.53
2022-09-07T00:23:03.948Z,99932.75
2022-09-07T00:25:32.048Z,99925.22
2022-09-07T00:27:59.057Z,99927.09
2022-09-07T00:30:25.404Z,99923.47
2022-09-07T00:32:53.054Z,99924.47
2022-09-07T00:35:19.383Z,99914.00
2022-09-07T00:37:45.717Z,99913.75
2022-09-07T00:40:12.292Z,99912.06
2022-09-07T00:42:38.668Z,99912.88
2022-09-07T00:45:07.800Z,99903.63
2022-09-07T00:47:37.386Z,99899.19
2022-09-07T00:50:07.766Z,99898.03
2022-09-07T00:52:35.164Z,99906.66
2022-09-07T00:55:06.158Z,99909.16
2022-09-07T00:57:33.531Z,99912.94
2022-09-07T01:00:00.084Z,99913.34
2022-09-07T01:02:26.594Z,99918.84
2022-09-07T01:04:55.063Z,99923.09
2022-09-07T01:07:23.046Z,99920.16
2022-09-07T01:09:49.664Z,99922.25
2022-09-07T01:12:16.119Z,99923.31
2022-09-07T01:14:44.620Z,99932.31
2022-09-07T01:17:15.349Z,99928.25
2022-09-07T01:19:56.175Z,99919.78
2022-09-07T01:22:32.145Z,99909.47
2022-09-07T01:25:02.929Z,99910.94
2022-09-07T01:27:45.332Z,99909.56
2022-09-07T01:30:13.151Z,99906.38
2022-09-07T01:32:46.520Z,99903.31
2022-09-07T01:35:20.160Z,99909.38
2022-09-07T01:37:49.332Z,99907.63
2022-09-07T01:40:19.654Z,99904.63
2022-09-07T01:42:51.232Z,99901.94
2022-09-07T01:45:19.757Z,99901.91
2022-09-07T01:47:48.545Z,99900.22
2022-09-07T01:50:17.131Z,99903.56
2022-09-07T01:52:47.180Z,99905.41
2022-09-07T01:55:16.603Z,99914.31
2022-09-07T01:57:45.131Z,99911.56
2022-09-07T02:00:14.652Z,99920.84
2022-09-07T02:02:44.346Z,99916.81
2022-09-07T02:05:13.337Z,99917.25
2022-09-07T02:07:42.279Z,99914.16
2022-09-07T02:10:10.512Z,99913.63
2022-09-07T02:12:40.332Z,99911.06
2022-09-07T02:15:10.663Z,99911.53
2022-09-07T02:17:41.495Z,99919.38
2022-09-07T02:20:09.666Z,99917.38
2022-09-07T02:22:38.730Z,99922.81
2022-09-07T02:25:07.241Z,99911.63
2022-09-07T02:27:35.587Z,99913.53
2022-09-07T02:30:01.934Z,99912.56
2022-09-07T02:32:28.285Z,99923.63
2022-09-07T02:34:55.989Z,99914.41
2022-09-07T02:37:22.661Z,99915.25
2022-09-07T02:39:49.095Z,99921.16
2022-09-07T02:42:15.499Z,99919.31
2022-09-07T02:44:42.726Z,99921.16
2022-09-07T02:47:18.973Z,99923.91
2022-09-07T02:49:54.047Z,99923.72
2022-09-07T02:52:27.616Z,99916.41
2022-09-07T02:55:00.094Z,99922.22
2022-09-07T02:57:34.871Z,99925.38
2022-09-07T03:00:04.700Z,99921.44
2022-09-07T03:02:34.402Z,99927.63
2022-09-07T03:05:02.705Z,99935.56
2022-09-07T03:07:35.773Z,99930.38
2022-09-07T03:10:04.066Z,99933.19
2022-09-07T03:12:38.320Z,99938.22
2022-09-07T03:15:05.071Z,99936.81
2022-09-07T03:17:31.604Z,99927.44
2022-09-07T03:19:58.034Z,99915.84
2022-09-07T03:22:24.508Z,99927.84
2022-09-07T03:24:52.255Z,99927.31
2022-09-07T03:27:18.803Z,99926.25
2022-09-07T03:29:45.137Z,99920.34
2022-09-07T03:32:11.493Z,99917.00
2022-09-07T03:34:37.821Z,99919.78
2022-09-07T03:37:04.212Z,99913.38
2022-09-07T03:39:30.584Z,99918.63
2022-09-07T03:41:58.277Z,99916.16
2022-09-07T03:44:24.620Z,99925.22
2022-09-07T03:46:50.971Z,99932.72
2022-09-07T03:49:17.397Z,99926.63
2022-09-07T03:51:43.753Z,99929.88
2022-09-07T03:54:10.084Z,99915.94
2022-09-07T03:56:36.425Z,99917.63
2022-09-07T03:59:04.171Z,99923.19
2022-09-07T04:01:30.712Z,99915.00
2022-09-07T04:04:02.003Z,99915.56
2022-09-07T04:06:29.229Z,99917.09
2022-09-07T04:08:55.544Z,99911.84
2022-09-07T04:11:22.104Z,99909.88
2022-09-07T04:13:48.464Z,99911.25
2022-09-07T04:16:17.307Z,99911.34
2022-09-07T04:18:44.108Z,99909.03
2022-09-07T04:21:11.042Z,99907.72
2022-09-07T04:23:37.991Z,99909.59
2022-09-07T04:26:04.383Z,99902.13
2022-09-07T04:28:30.800Z,99897.91
2022-09-07T04:30:59.602Z,99907.13
2022-09-07T04:33:27.385Z,99897.97
2022-09-07T04:35:53.717Z,99902.28
2022-09-07T04:38:20.041Z,99906.75
2022-09-07T04:40:46.391Z,99905.41
2022-09-07T04:43:12.711Z,99907.50
2022-09-07T04:45:39.457Z,99902.41
2022-09-07T04:48:05.887Z,99894.06
2022-09-07T04:50:33.538Z,99893.59
2022-09-07T04:52:59.949Z,99891.19
2022-09-07T04:55:26.282Z,99894.59
2022-09-07T04:57:52.632Z,99890.31
2022-09-07T05:00:19.024Z,99893.00
2022-09-07T05:02:45.502Z,99892.59
2022-09-07T05:05:11.834Z,99894.94
2022-09-07T05:07:39.508Z,99886.41
2022-09-07T05:10:05.960Z,99878.25
2022-09-07T05:12:32.321Z,99869.53
2022-09-07T05:14:58.665Z,99867.44
2022-09-07T05:17:25.003Z,99864.31
2022-09-07T05:19:51.326Z,99879.84
2022-09-07T05:22:17.664Z,99880.06
2022-09-07T05:24:46.819Z,99889.88
2022-09-07T05:27:13.162Z,99878.41
2022-09-07T05:32:25.803Z,99894.53
2022-09-07T05:34:53.014Z,99902.63
2022-09-07T05:37:19.715Z,99904.41
2022-09-07T05:39:47.346Z,99900.44
2022-09-07T05:42:13.708Z,99908.72
2022-09-07T05:47:09.329Z,99910.13
2022-09-07T05:49:35.671Z,99910.47
2022-09-07T05:52:02.172Z,99904.91
2022-09-07T05:54:28.534Z,99911.88
2022-09-07T05:56:56.209Z,99908.09
2022-09-07T05:59:22.546Z,99903.00
2022-09-07T06:01:49.088Z,99899.19
2022-09-07T06:04:15.531Z,99898.06
2022-09-07T06:06:43.424Z,99906.56
2022-09-07T06:09:14.345Z,99904.44
2022-09-07T06:11:40.690Z,99915.47
2022-09-07T06:14:08.317Z,99914.31
2022-09-07T06:16:34.732Z,99913.88
2022-09-07T06:19:04.664Z,99921.63
2022-09-07T06:21:30.980Z,99921.03
2022-09-07T06:23:57.314Z,99931.09
2022-09-07T06:26:23.667Z,99928.94
2022-09-07T06:28:52.855Z,99932.63
2022-09-07T06:31:23.474Z,99930.09
2022-09-07T06:33:50.313Z,99935.16
2022-09-07T06:36:17.669Z,99933.03
2022-09-07T06:38:44.511Z,99940.81
2022-09-07T06:43:59.516Z,99939.09
2022-09-07T06:49:13.528Z,99944.31
2022-09-07T06:51:39.869Z,99936.41
2022-09-07T06:56:52.589Z,99923.41
2022-09-07T06:59:19.270Z,99919.75
2022-09-07T07:01:46.951Z,99929.34
2022-09-07T07:04:13.721Z,99926.81
2022-09-07T07:06:40.319Z,99928.94
2022-09-07T07:09:07.931Z,99924.72
2022-09-07T07:11:34.796Z,99934.03
2022-09-07T07:14:01.208Z,99921.81
2022-09-07T07:16:27.620Z,99921.28
2022-09-07T07:18:55.914Z,99925.56
2022-09-07T07:21:22.580Z,99918.88
2022-09-07T07:23:49.717Z,99929.09
2022-09-07T07:26:17.201Z,99930.09
2022-09-07T07:31:30.269Z,99924.72
2022-09-07T07:33:58.049Z,99931.94
2022-09-07T07:36:25.669Z,99940.00
2022-09-07T07:39:00.317Z,99934.75
2022-09-07T07:44:15.102Z,99926.50
2022-09-07T07:46:41.543Z,99929.88
2022-09-07T07:49:09.262Z,99927.84
2022-09-07T07:52:49.914Z,99925.47
2022-09-07T07:54:21.958Z,99933.59
2022-09-07T07:56:48.300Z,99928.47
2022-09-07T07:59:15.961Z,99927.03
2022-09-07T08:01:43.831Z,99936.63
2022-09-07T08:04:11.626Z,99923.16
2022-09-07T08:06:41.562Z,99930.84
2022-09-07T08:09:08.037Z,99939.03
2022-09-07T08:11:34.472Z,99933.25
2022-09-07T08:14:00.848Z,99929.06
2022-09-07T08:16:27.292Z,99929.66
2022-09-07T08:18:53.726Z,99924.28
2022-09-07T08:21:21.365Z,99923.63
2022-09-07T08:23:48.495Z,99928.69
2022-09-07T08:26:14.994Z,99929.66
2022-09-07T08:28:42.350Z,99924.28
2022-09-07T08:31:10.540Z,99924.63
2022-09-07T08:33:37.579Z,99931.13
2022-09-07T08:36:05.531Z,99928.16
2022-09-07T08:38:33.574Z,99928.56
2022-09-07T08:41:01.240Z,99929.59
2022-09-07T08:43:33.918Z,99932.84
2022-09-07T08:46:05.198Z,99941.81
2022-09-07T08:48:32.891Z,99940.59
2022-09-07T08:51:01.412Z,99936.78
2022-09-07T08:53:28.793Z,99928.44
2022-09-07T08:55:58.724Z,99935.78
2022-09-07T08:58:48.257Z,99933.19
2022-09-07T09:04:17.334Z,99928.75
2022-09-07T09:06:51.239Z,99932.81
2022-09-07T09:09:23.592Z,99930.09
2022-09-07T09:11:57.076Z,99932.03
2022-09-07T09:14:28.265Z,99932.16
2022-09-07T09:16:58.317Z,99930.00
2022-09-07T09:19:35.779Z,99917.59
2022-09-07T09:22:18.150Z,99912.84
2022-09-07T09:24:46.392Z,99913.28
2022-09-07T09:27:14.385Z,99912.69
2022-09-07T09:29:40.715Z,99906.94
2022-09-07T09:32:21.910Z,99912.84
2022-09-07T09:34:55.194Z,99914.56
2022-09-07T09:37:32.619Z,99914.88
2022-09-07T09:40:02.237Z,99913.50
2022-09-07T09:42:32.730Z,99910.41
2022-09-07T09:45:02.555Z,99907.31
2022-09-07T09:47:31.009Z,99917.66
2022-09-07T09:49:58.336Z,99903.94
2022-09-07T09:52:29.734Z,99908.56
2022-09-07T09:55:03.336Z,99907.25
2022-09-07T09:59:04.771Z,99916.91
2022-09-07T10:00:34.773Z,99918.91
2022-09-07T10:05:50.247Z,99918.78
2022-09-07T10:08:19.378Z,99912.91
2022-09-07T10:10:54.349Z,99916.53
2022-09-07T10:13:23.219Z,99918.34
2022-09-07T10:15:51.794Z,99908.09
2022-09-07T10:18:20.277Z,99908.56
2022-09-07T10:20:46.624Z,99912.84
2022-09-07T10:23:19.644Z,99906.94
2022-09-07T10:25:46.028Z,99897.31
2022-09-07T10:28:16.793Z,99895.63
2022-09-07T10:30:52.817Z,99883.50
2022-09-07T10:33:24.143Z,99881.78
2022-09-07T10:35:53.650Z,99884.63
2022-09-07T10:38:21.000Z,99882.25
2022-09-07T10:40:50.037Z,99876.16
2022-09-07T10:43:21.856Z,99874.47
2022-09-07T10:45:59.435Z,99871.25
2022-09-07T10:48:31.088Z,99869.41
2022-09-07T10:51:03.113Z,99868.03
2022-09-07T10:53:41.945Z,99870.53
2022-09-07T10:56:10.584Z,99873.56
2022-09-07T11:01:34.766Z,99870.69
2022-09-07T11:04:10.291Z,99869.38
2022-09-07T11:06:39.702Z,99875.88
2022-09-07T11:09:17.171Z,99874.69
2022-09-07T11:12:01.467Z,99861.69
2022-09-07T11:14:29.284Z,99858.03
2022-09-07T11:16:58.636Z,99861.56
2022-09-07T11:19:35.391Z,99845.44
2022-09-07T11:22:07.266Z,99844.47
2022-09-07T11:24:37.293Z,99848.56
2022-09-07T11:27:07.912Z,99845.22
2022-09-07T11:29:38.128Z,99840.47
2022-09-07T11:32:07.717Z,99829.88
2022-09-07T11:34:38.860Z,99839.78
2022-09-07T11:37:08.552Z,99830.19
2022-09-07T11:39:38.982Z,99834.72
2022-09-07T11:44:59.005Z,99838.41
2022-09-07T11:47:28.794Z,99837.69
2022-09-07T11:49:59.133Z,99834.16
2022-09-07T11:52:31.870Z,99827.25
2022-09-07T11:55:01.290Z,99822.19
2022-09-07T11:57:33.935Z,99818.94
2022-09-07T12:00:03.420Z,99819.66
2022-09-07T12:02:58.870Z,99824.19
2022-09-07T12:05:33.186Z,99804.53
2022-09-07T12:08:07.372Z,99803.53
2022-09-07T12:10:42.783Z,99799.66
2022-09-07T12:13:26.555Z,99805.16
2022-09-07T12:15:57.137Z,99797.31
2022-09-07T12:18:32.207Z,99790.09
2022-09-07T12:20:58.655Z,99800.00
2022-09-07T12:23:27.471Z,99796.09
2022-09-07T12:26:13.730Z,99806.16
2022-09-07T12:28:52.774Z,99807.31
2022-09-07T12:31:40.034Z,99802.69
2022-09-07T12:34:21.282Z,99800.78
2022-09-07T12:36:49.713Z,99802.16
2022-09-07T12:39:19.489Z,99790.03
2022-09-07T12:41:47.851Z,99792.19
2022-09-07T12:44:16.543Z,99781.72
2022-09-07T12:46:46.759Z,99777.19
2022-09-07T12:49:23.022Z,99781.28
2022-09-07T12:52:11.557Z,99772.53
2022-09-07T12:54:43.797Z,99767.28
2022-09-07T12:57:32.379Z,99768.44
2022-09-07T13:00:03.295Z,99771.97
2022-09-07T13:02:41.605Z,99776.50
2022-09-07T13:05:16.102Z,99757.00
2022-09-07T13:07:57.353Z,99755.47
2022-09-07T13:10:30.437Z,99758.97
2022-09-07T13:13:01.409Z,99752.09
2022-09-07T13:28:31.982Z,99748.03
2022-09-07T13:31:13.064Z,99751.69
2022-09-07T13:33:44.692Z,99746.50
2022-09-07T13:36:17.603Z,99741.97
2022-09-07T13:38:43.954Z,99743.72
2022-09-07T13:41:13.368Z,99727.81
2022-09-07T13:43:39.993Z,99719.44
2022-09-07T13:46:12.779Z,99723.50
2022-09-07T13:48:41.513Z,99724.38
2022-09-07T13:51:13.454Z,99719.66
2022-09-07T13:53:45.475Z,99720.72
2022-09-07T13:56:15.983Z,99718.66
2022-09-07T13:58:43.737Z,99718.66
2022-09-07T14:01:15.474Z,99715.00
2022-09-07T14:03:45.563Z,99718.66
2022-09-07T14:06:14.624Z,99701.16
2022-09-07T14:08:41.203Z,99696.78
2022-09-07T14:11:16.414Z,99701.81
2022-09-07T14:13:42.831Z,99697.69
2022-09-07T14:16:09.217Z,99709.47
2022-09-07T14:18:35.627Z,99698.56
2022-09-07T14:21:01.960Z,99701.41
2022-09-07T14:23:30.540Z,99698.03
2022-09-07T14:26:19.235Z,99694.16
2022-09-07T14:28:46.435Z,99679.22
2022-09-07T14:31:13.778Z,99679.22
2022-09-07T14:33:46.598Z,99677.50
2022-09-07T14:36:36.363Z,99659.53
2022-09-07T14:39:05.510Z,99664.91
2022-09-07T14:41:32.294Z,99667.59
2022-09-07T14:43:59.308Z,99670.47
2022-09-07T14:46:26.547Z,99663.72
2022-09-07T14:48:55.280Z,99662.03
2022-09-07T14:51:34.685Z,99662.03
2022-09-07T14:54:04.971Z,99653.28
2022-09-07T14:56:32.675Z,99672.09
2022-09-07T14:58:59.224Z,99668.56
2022-09-07T15:01:41.773Z,99653.59
2022-09-07T15:04:16.620Z,99643.03
2022-09-07T15:09:35.282Z,99638.31
2022-09-07T15:12:03.061Z,99649.00
2022-09-07T15:14:29.447Z,99644.91
2022-09-07T15:19:44.158Z,99645.84
2022-09-07T15:22:11.038Z,99657.66
2022-09-07T15:24:38.657Z,99648.94
2022-09-07T15:27:17.650Z,99643.75
2022-09-07T15:29:44.156Z,99641.91
2022-09-07T15:32:10.577Z,99637.69
2022-09-07T15:34:37.106Z,99635.50
2022-09-07T15:37:04.179Z,99628.59
2022-09-07T15:39:52.809Z,99620.94
2022-09-07T15:45:06.440Z,99605.22
2022-09-07T15:47:51.919Z,99600.50
2022-09-07T15:50:18.598Z,99604.03
2022-09-07T15:52:46.479Z,99610.44
2022-09-07T15:55:14.710Z,99606.88
2022-09-07T15:57:59.224Z,99608.69
2022-09-07T16:00:30.100Z,99608.34
2022-09-07T16:03:11.946Z,99620.09
2022-09-07T16:05:39.902Z,99607.94
2022-09-07T16:10:55.159Z,99599.22
2022-09-07T16:13:21.856Z,99600.38
2022-09-07T16:15:48.189Z,99597.00
2022-09-07T16:18:17.075Z,99601.00
2022-09-07T16:20:43.921Z,99612.94
2022-09-07T16:23:13.690Z,99607.75
2022-09-07T16:25:40.935Z,99613.78
2022-09-07T16:28:09.109Z,99601.44
2022-09-07T16:30:39.378Z,99613.06
2022-09-07T16:33:06.092Z,99615.94
2022-09-07T16:35:32.738Z,99623.84
2022-09-07T16:40:45.585Z,99613.97
2022-09-07T16:43:13.405Z,99616.97
2022-09-07T16:48:26.226Z,99640.38
2022-09-07T16:50:58.748Z,99645.50
2022-09-07T16:53:27.881Z,99632.97
2022-09-07T16:56:00.384Z,99626.66
2022-09-07T16:58:37.629Z,99632.34
2022-09-07T17:01:04.838Z,99627.16
2022-09-07T17:03:31.312Z,99632.00
2022-09-07T17:05:59.607Z,99629.81
2022-09-07T17:08:26.015Z,99633.47
2022-09-07T17:10:57.872Z,99621.53
2022-09-07T17:13:24.214Z,99611.94
2022-09-07T17:15:51.866Z,99610.25
2022-09-07T17:18:18.683Z,99612.94
2022-09-07T17:20:53.656Z,99606.69
2022-09-07T17:23:21.358Z,99621.06
2022-09-07T17:25:47.878Z,99623.06
2022-09-07T17:28:15.323Z,99617.88
2022-09-07T17:30:41.795Z,99613.88
2022-09-07T17:33:09.621Z,99621.44
2022-09-07T17:35:37.541Z,99614.41
2022-09-07T17:39:14.236Z,99613.75
2022-09-07T17:40:50.239Z,99622.69
2022-09-07T17:46:03.453Z,99629.09
2022-09-07T17:48:33.216Z,99630.13
2022-09-07T17:51:00.271Z,99624.00
2022-09-07T17:53:26.755Z,99628.75
2022-09-07T17:55:53.099Z,99625.13
2022-09-07T17:58:19.441Z,99630.47
2022-09-07T18:00:45.776Z,99632.31
2022-09-07T18:03:12.384Z,99629.41
2022-09-07T18:05:40.019Z,99634.97
2022-09-07T18:08:06.341Z,99640.16
2022-09-07T18:11:44.958Z,99637.78
2022-09-07T18:13:25.545Z,99643.63
2022-09-07T18:15:57.297Z,99639.41
2022-09-07T18:18:23.662Z,99627.66
2022-09-07T18:20:51.265Z,99627.66
2022-09-07T18:23:17.589Z,99619.16
2022-09-07T18:25:43.908Z,99631.31
2022-09-07T18:30:56.488Z,99621.22
2022-09-07T18:33:22.974Z,99613.81
2022-09-07T18:35:50.560Z,99605.13
2022-09-07T18:38:16.883Z,99592.06
2022-09-07T18:40:43.207Z,99595.44
2022-09-07T18:43:09.538Z,99592.91
2022-09-07T18:45:35.914Z,99600.66
2022-09-07T18:48:02.451Z,99609.41
2022-09-07T18:50:28.750Z,99612.25
2022-09-07T18:53:04.101Z,99623.19
2022-09-07T18:55:33.848Z,99625.91
2022-09-07T18:58:00.172Z,99629.00
2022-09-07T19:00:26.498Z,99626.41
2022-09-07T19:02:52.848Z,99632.81
2022-09-07T19:08:07.083Z,99627.75
2022-09-07T19:10:34.115Z,99629.91
2022-09-07T19:13:00.439Z,99638.41
2022-09-07T19:15:26.887Z,99628.53
2022-09-07T19:17:53.198Z,99639.72
2022-09-07T19:20:19.529Z,99642.88
2022-09-07T19:22:45.849Z,99651.13
2022-09-07T19:25:13.469Z,99655.50
2022-09-07T19:27:39.785Z,99656.97
2022-09-07T19:30:06.377Z,99658.69
2022-09-07T19:32:32.703Z,99665.31
2022-09-07T19:34:59.012Z,99665.56
2022-09-07T19:37:25.896Z,99661.53
2022-09-07T19:39:52.467Z,99671.59
2022-09-07T19:42:20.447Z,99675.50
2022-09-07T19:44:46.775Z,99669.44
2022-09-07T19:47:13.213Z,99679.06
2022-09-07T19:49:39.627Z,99678.03
2022-09-07T19:52:05.949Z,99675.84
2022-09-07T19:54:32.281Z,99676.00
2022-09-07T19:56:58.581Z,99675.31
2022-09-07T19:59:26.228Z,99665.97
2022-09-07T20:01:52.524Z,99678.88
2022-09-07T20:04:20.633Z,99669.28
2022-09-07T20:06:50.569Z,99672.44
2022-09-07T20:09:17.949Z,99676.13
2022-09-07T20:11:46.821Z,99671.22
2022-09-07T20:14:13.894Z,99662.31
2022-09-07T20:16:41.751Z,99662.47
2022-09-07T20:19:10.244Z,99674.28
2022-09-07T20:21:36.699Z,99664.50
2022-09-07T20:24:03.181Z,99654.97
2022-09-07T20:26:29.522Z,99655.03
2022-09-07T20:29:10.969Z,99658.91
2022-09-07T20:31:44.477Z,99662.84
2022-09-07T20:34:11.112Z,99665.06
2022-09-07T20:36:37.575Z,99660.84
2022-09-07T20:39:04.289Z,99663.22
2022-09-07T20:41:32.679Z,99659.19
2022-09-07T20:43:59.770Z,99660.69
2022-09-07T20:46:26.550Z,99661.06
2022-09-07T20:48:54.517Z,99664.56
2022-09-07T20:51:21.245Z,99663.94
2022-09-07T20:53:48.046Z,99667.66
2022-09-07T20:56:15.198Z,99660.38
2022-09-07T20:58:41.820Z,99670.13
2022-09-07T21:01:08.275Z,99664.56
2022-09-07T21:03:34.673Z,99666.00
2022-09-07T21:06:02.683Z,99664.78
2022-09-07T21:08:29.145Z,99663.25
2022-09-07T21:10:55.457Z,99660.72
2022-09-07T21:13:22.007Z,99662.84
2022-09-07T21:15:48.352Z,99652.91
2022-09-07T21:18:15.391Z,99662.03
2022-09-07T21:20:42.325Z,99651.66
2022-09-07T21:23:14.683Z,99660.56
2022-09-07T21:25:42.325Z,99661.41
2022-09-07T21:28:08.648Z,99653.00
2022-09-07T21:30:34.979Z,99647.88
2022-09-07T21:33:03.180Z,99656.66
2022-09-07T21:35:29.773Z,99663.84
2022-09-07T21:37:56.083Z,99659.84
2022-09-07T21:40:23.712Z,99656.31
2022-09-07T21:42:50.594Z,99675.00
2022-09-07T21:45:17.106Z,99674.88
2022-09-07T21:47:43.438Z,99667.91
2022-09-07T21:50:09.827Z,99661.88
2022-09-07T21:52:36.581Z,99663.16
2022-09-07T21:55:03.025Z,99660.09
2022-09-07T21:57:30.721Z,99656.72
2022-09-07T21:59:57.050Z,99654.81
2022-09-07T22:02:23.432Z,99655.34
2022-09-07T22:04:49.817Z,99652.56
2022-09-07T22:07:16.251Z,99653.69
2022-09-07T22:09:42.563Z,99640.34
2022-09-07T22:12:08.951Z,99643.56
2022-09-07T22:14:36.532Z,99641.59
2022-09-07T22:17:03.116Z,99637.06
2022-09-07T22:19:29.417Z,99636.75
2022-09-07T22:21:55.709Z,99629.13
2022-09-07T22:24:22.018Z,99626.22
2022-09-07T22:26:48.312Z,99623.38
2022-09-07T22:29:14.613Z,99629.06
2022-09-07T22:31:42.457Z,99624.38
2022-09-07T22:34:09.363Z,99629.31
2022-09-07T22:36:36.668Z,99624.31
2022-09-07T22:39:04.931Z,99624.94
2022-09-07T22:41:32.298Z,99618.34
2022-09-07T22:43:59.093Z,99629.03
2022-09-07T22:46:26.439Z,99620.13
2022-09-07T22:48:55.087Z,99612.69
2022-09-07T22:51:21.409Z,99624.97
2022-09-07T22:53:47.707Z,99623.28
2022-09-07T22:56:14.901Z,99613.84
2022-09-07T22:58:45.009Z,99612.81
2022-09-07T23:01:11.412Z,99609.03
2022-09-07T23:03:37.967Z,99609.75
2022-09-07T23:06:05.854Z,99602.06
2022-09-07T23:08:32.145Z,99604.59
2022-09-07T23:11:01.959Z,99597.56
2022-09-07T23:13:28.292Z,99607.28
2022-09-07T23:15:54.620Z,99604.59
2022-09-07T23:18:21.072Z,99593.53
2022-09-07T23:20:47.622Z,99594.91
2022-09-07T23:23:15.764Z,99597.28
2022-09-07T23:25:42.604Z,99594.31
2022-09-07T23:28:10.655Z,99600.06
2022-09-07T23:30:37.029Z,99585.34
2022-09-07T23:33:03.592Z,99590.63
2022-09-07T23:35:29.920Z,99588.25
2022-09-07T23:37:56.385Z,99586.06
2022-09-07T23:40:24.026Z,99586.22
2022-09-07T23:42:50.326Z,99581.16
2022-09-07T23:45:16.669Z,99577.09
2022-09-07T23:47:42.970Z,99574.28
2022-09-07T23:50:09.601Z,99580.63
2022-09-07T23:52:36.090Z,99581.84
2022-09-07T23:55:02.421Z,99578.84
2022-09-07T23:57:30.904Z,99575.66
2022-09-07T23:59:57.353Z,99569.81
